PDT,Max TemperatureF,Mean TemperatureF,Min TemperatureF,Max Dew PointF,MeanDew PointF,Min DewpointF,Max Humidity, Mean Humidity, Min Humidity, Max Sea Level PressureIn, Mean Sea Level PressureIn, Min Sea Level PressureIn, Max VisibilityMiles, Mean VisibilityMiles, Min VisibilityMiles, Max Wind SpeedMPH, Mean Wind SpeedMPH, Max Gust SpeedMPH,PrecipitationIn, CloudCover, Events, WindDirDegrees
2013-3-1,54,46,37,43,39,36,100,83,66,30.47,30.41,30.33,10,10,4,15,6,21,0.02,5,Rain,115
2013-3-2,51,46,40,41,38,36,86,74,61,30.33,30.15,29.98,10,10,10,24,10,31,0.00,5,,125
2013-3-3,44,34,24,37,24,20,76,58,39,30.23,30.09,29.96,10,10,3,25,12,36,0.01,3,Snow,255
2013-3-4,44,33,22,24,21,18,84,62,39,30.34,30.24,30.10,10,10,10,15,6,22,0.00,1,,102
2013-3-5,47,39,31,34,25,19,79,61,42,30.09,29.93,29.80,10,10,10,21,11,25,0.02,4,,99
2013-3-6,50,42,34,38,33,29,96,81,66,29.92,29.74,29.59,10,8,2,26,14,33,0.14,7,Rain-Snow,207
2013-3-7,47,38,28,32,29,24,89,67,45,30.10,30.03,29.90,10,10,7,21,7,26,T,5,Rain-Snow,236
2013-3-8,48,36,24,30,25,20,88,64,39,30.18,30.09,30.05,10,10,10,13,3,16,0.00,0,,344
2013-3-9,48,36,24,33,28,21,88,71,53,30.47,30.37,30.19,10,10,10,7,2,9,0.00,3,,283
2013-3-10,48,40,31,35,31,25,92,67,42,30.47,30.38,30.25,10,10,9,23,6,32,T,5,Rain,105
2013-3-11,49,40,31,37,33,28,100,73,46,30.36,30.31,30.25,10,9,3,14,5,17,0.00,5,,289
2013-3-12,54,46,38,43,38,29,92,76,59,30.26,30.18,30.14,10,9,5,24,9,30,0.05,8,Rain,120
2013-3-13,57,49,41,42,40,38,92,72,51,30.24,30.19,30.15,10,10,10,12,2,17,T,4,,137
2013-3-14,62,52,42,39,37,33,83,60,36,30.18,30.09,30.04,10,10,10,25,11,30,T,2,,174
2013-3-15,56,48,39,41,37,35,89,70,50,30.20,30.15,30.11,10,10,10,23,9,30,T,2,Rain,249
2013-3-16,50,41,32,38,34,30,86,72,58,30.09,29.91,29.75,10,8,0,30,14,38,0.14,6,Fog-Rain-Snow,244
2013-3-17,40,35,30,31,27,24,89,80,70,30.11,29.99,29.79,10,7,1,32,19,44,0.02,7,Rain-Snow,244
2013-3-18,45,36,26,29,24,18,85,65,45,30.22,30.10,30.03,10,10,3,32,15,41,0.01,4,Rain-Snow,244
2013-3-19,52,37,22,33,23,17,74,53,32,30.29,30.14,29.87,10,10,8,24,12,29,T,3,Rain,105
2013-3-20,59,46,33,43,37,27,83,68,53,29.87,29.69,29.54,10,8,1,38,19,46,0.45,6,Rain-Thunderstorm,214
2013-3-21,40,35,29,28,26,23,85,70,54,30.10,30.03,29.88,10,7,1,30,16,38,0.03,6,Snow,244
2013-3-22,39,33,26,28,25,23,92,78,64,30.31,30.14,30.02,10,8,0,22,9,28,0.01,6,Snow,252
2013-3-23,40,31,22,27,23,18,88,66,44,30.40,30.35,30.31,10,10,8,15,4,23,0.00,3,,164
2013-3-24,44,35,26,25,20,14,85,58,30,30.38,30.31,30.21,10,10,10,15,8,20,0.00,0,,102
2013-3-25,52,42,31,30,24,20,63,50,36,30.20,30.11,30.00,10,10,10,20,8,23,0.00,6,,101
2013-3-26,57,45,33,33,30,25,70,54,38,30.01,29.99,29.97,10,10,10,10,3,18,0.00,3,,356
2013-3-27,56,47,37,41,38,32,85,70,55,30.01,29.99,29.96,10,10,9,12,4,33,0.03,5,Rain,6
2013-3-28,59,48,36,45,40,34,92,72,51,30.13,30.06,30.00,10,10,7,9,2,30,0.05,4,Rain,306
2013-3-29,58,47,35,43,38,32,92,68,43,30.25,30.21,30.13,10,10,7,13,3,16,T,5,Rain,268
2013-3-30,63,50,37,42,33,26,92,59,25,30.31,30.24,30.15,10,10,8,13,4,17,0.00,0,,88
2013-3-31,68,52,35,37,33,29,76,51,26,30.14,30.04,29.94,10,10,7,16,5,18,0.00,0,,63